sensor_id;sensor_type;location;lat;lon;timestamp;temperature;humidity
11840;DHT22;5979;50.800;4.904;2022-08-21T00:01:07;16.40;99.90
11840;DHT22;5979;50.800;4.904;2022-08-21T00:03:35;16.40;99.90
11840;DHT22;5979;50.800;4.904;2022-08-21T00:06:02;16.40;99.90
11840;DHT22;5979;50.800;4.904;2022-08-21T00:08:28;16.40;99.90
11840;DHT22;5979;50.800;4.904;2022-08-21T00:10:54;16.40;99.90
11840;DHT22;5979;50.800;4.904;2022-08-21T00:13:22;16.30;99.90
11840;DHT22;5979;50.800;4.904;2022-08-21T00:15:49;16.30;99.90
11840;DHT22;5979;50.800;4.904;2022-08-21T00:18:15;16.30;99.90
11840;DHT22;5979;50.800;4.904;2022-08-21T00:20:43;16.20;99.90
11840;DHT22;5979;50.800;4.904;2022-08-21T00:23:09;16.20;99.90
11840;DHT22;5979;50.800;4.904;2022-08-21T00:25:36;16.10;99.90
11840;DHT22;5979;50.800;4.904;2022-08-21T00:28:04;16.00;99.90
11840;DHT22;5979;50.800;4.904;2022-08-21T00:30:30;16.00;99.90
11840;DHT22;5979;50.800;4.904;2022-08-21T00:32:56;15.90;99.90
11840;DHT22;5979;50.800;4.904;2022-08-21T00:35:29;16.00;99.90
11840;DHT22;5979;50.800;4.904;2022-08-21T00:37:56;16.00;99.90
11840;DHT22;5979;50.800;4.904;2022-08-21T00:40:34;16.00;99.90
11840;DHT22;5979;50.800;4.904;2022-08-21T00:43:03;16.00;99.90
11840;DHT22;5979;50.800;4.904;2022-08-21T00:45:29;16.00;99.90
11840;DHT22;5979;50.800;4.904;2022-08-21T00:47:55;16.00;99.90
11840;DHT22;5979;50.800;4.904;2022-08-21T00:50:22;16.00;99.90
11840;DHT22;5979;50.800;4.904;2022-08-21T00:52:51;15.90;99.90
11840;DHT22;5979;50.800;4.904;2022-08-21T00:55:17;15.90;99.90
11840;DHT22;5979;50.800;4.904;2022-08-21T00:57:47;15.90;99.90
11840;DHT22;5979;50.800;4.904;2022-08-21T01:00:17;15.90;99.90
11840;DHT22;5979;50.800;4.904;2022-08-21T01:02:44;15.80;99.90
11840;DHT22;5979;50.800;4.904;2022-08-21T01:05:11;15.80;99.90
11840;DHT22;5979;50.800;4.904;2022-08-21T01:07:37;15.80;99.90
11840;DHT22;5979;50.800;4.904;2022-08-21T01:10:04;15.80;99.90
11840;DHT22;5979;50.800;4.904;2022-08-21T01:12:31;15.70;99.90
11840;DHT22;5979;50.800;4.904;2022-08-21T01:14:57;15.70;99.90
11840;DHT22;5979;50.800;4.904;2022-08-21T01:17:24;15.70;99.90
11840;DHT22;5979;50.800;4.904;2022-08-21T01:19:51;15.70;99.90
11840;DHT22;5979;50.800;4.904;2022-08-21T01:22:17;15.60;99.90
11840;DHT22;5979;50.800;4.904;2022-08-21T01:24:44;15.60;99.90
11840;DHT22;5979;50.800;4.904;2022-08-21T01:27:10;15.50;99.90
11840;DHT22;5979;50.800;4.904;2022-08-21T01:29:48;15.50;99.90
11840;DHT22;5979;50.800;4.904;2022-08-21T01:32:17;15.50;99.90
11840;DHT22;5979;50.800;4.904;2022-08-21T01:34:45;15.50;99.90
11840;DHT22;5979;50.800;4.904;2022-08-21T01:37:11;15.50;99.90
11840;DHT22;5979;50.800;4.904;2022-08-21T01:39:37;15.40;99.90
11840;DHT22;5979;50.800;4.904;2022-08-21T01:42:04;15.40;99.90
11840;DHT22;5979;50.800;4.904;2022-08-21T01:44:30;15.40;99.90
11840;DHT22;5979;50.800;4.904;2022-08-21T01:46:58;15.40;99.90
11840;DHT22;5979;50.800;4.904;2022-08-21T01:49:24;15.40;99.90
11840;DHT22;5979;50.800;4.904;2022-08-21T01:51:50;15.40;99.90
11840;DHT22;5979;50.800;4.904;2022-08-21T01:54:15;15.40;99.90
11840;DHT22;5979;50.800;4.904;2022-08-21T01:56:45;15.40;99.90
11840;DHT22;5979;50.800;4.904;2022-08-21T01:59:12;15.40;99.90
11840;DHT22;5979;50.800;4.904;2022-08-21T02:01:38;15.30;99.90
11840;DHT22;5979;50.800;4.904;2022-08-21T02:04:08;15.30;99.90
11840;DHT22;5979;50.800;4.904;2022-08-21T02:06:34;15.30;99.90
11840;DHT22;5979;50.800;4.904;2022-08-21T02:09:02;15.20;99.90
11840;DHT22;5979;50.800;4.904;2022-08-21T02:11:28;15.20;99.90
11840;DHT22;5979;50.800;4.904;2022-08-21T02:13:54;15.10;99.90
11840;DHT22;5979;50.800;4.904;2022-08-21T02:16:20;15.10;99.90
11840;DHT22;5979;50.800;4.904;2022-08-21T02:18:45;15.10;99.90
11840;DHT22;5979;50.800;4.904;2022-08-21T02:21:11;15.10;99.90
11840;DHT22;5979;50.800;4.904;2022-08-21T02:23:37;15.10;99.90
11840;DHT22;5979;50.800;4.904;2022-08-21T02:26:05;15.00;99.90
11840;DHT22;5979;50.800;4.904;2022-08-21T02:28:35;15.00;99.90
11840;DHT22;5979;50.800;4.904;2022-08-21T02:31:01;15.00;99.90
11840;DHT22;5979;50.800;4.904;2022-08-21T02:33:27;15.00;99.90
11840;DHT22;5979;50.800;4.904;2022-08-21T02:35:54;15.00;99.90
11840;DHT22;5979;50.800;4.904;2022-08-21T02:38:23;14.90;99.90
11840;DHT22;5979;50.800;4.904;2022-08-21T02:40:51;14.90;99.90
11840;DHT22;5979;50.800;4.904;2022-08-21T02:43:19;14.80;99.90
11840;DHT22;5979;50.800;4.904;2022-08-21T02:45:46;14.80;99.90
11840;DHT22;5979;50.800;4.904;2022-08-21T02:48:14;14.80;99.90
11840;DHT22;5979;50.800;4.904;2022-08-21T02:50:44;14.70;99.90
11840;DHT22;5979;50.800;4.904;2022-08-21T02:53:12;14.70;99.90
11840;DHT22;5979;50.800;4.904;2022-08-21T02:55:46;14.70;99.90
11840;DHT22;5979;50.800;4.904;2022-08-21T02:58:14;14.70;99.90
11840;DHT22;5979;50.800;4.904;2022-08-21T03:00:40;14.60;99.90
11840;DHT22;5979;50.800;4.904;2022-08-21T03:03:06;14.60;99.90
11840;DHT22;5979;50.800;4.904;2022-08-21T03:05:33;14.50;99.90
11840;DHT22;5979;50.800;4.904;2022-08-21T03:08:02;14.50;99.90
11840;DHT22;5979;50.800;4.904;2022-08-21T03:10:28;14.50;99.90
11840;DHT22;5979;50.800;4.904;2022-08-21T03:12:56;14.40;99.90
11840;DHT22;5979;50.800;4.904;2022-08-21T03:15:22;14.40;99.90
11840;DHT22;5979;50.800;4.904;2022-08-21T03:17:51;14.40;99.90
11840;DHT22;5979;50.800;4.904;2022-08-21T03:20:20;14.40;99.90
11840;DHT22;5979;50.800;4.904;2022-08-21T03:22:47;14.40;99.90
11840;DHT22;5979;50.800;4.904;2022-08-21T03:25:13;14.40;99.90
11840;DHT22;5979;50.800;4.904;2022-08-21T03:27:38;14.40;99.90
11840;DHT22;5979;50.800;4.904;2022-08-21T03:30:06;14.40;99.90
11840;DHT22;5979;50.800;4.904;2022-08-21T03:32:32;14.40;99.90
11840;DHT22;5979;50.800;4.904;2022-08-21T03:34:58;14.30;99.90
11840;DHT22;5979;50.800;4.904;2022-08-21T03:37:24;14.30;99.90
11840;DHT22;5979;50.800;4.904;2022-08-21T03:39:51;14.30;99.90
11840;DHT22;5979;50.800;4.904;2022-08-21T03:42:16;14.30;99.90
11840;DHT22;5979;50.800;4.904;2022-08-21T03:44:42;14.20;99.90
11840;DHT22;5979;50.800;4.904;2022-08-21T03:47:08;14.10;99.90
11840;DHT22;5979;50.800;4.904;2022-08-21T03:49:33;14.10;99.90
11840;DHT22;5979;50.800;4.904;2022-08-21T03:52:00;14.10;99.90
11840;DHT22;5979;50.800;4.904;2022-08-21T03:54:26;14.10;99.90
11840;DHT22;5979;50.800;4.904;2022-08-21T03:56:51;14.10;99.90
11840;DHT22;5979;50.800;4.904;2022-08-21T03:59:17;14.00;99.90
11840;DHT22;5979;50.800;4.904;2022-08-21T04:01:58;14.00;99.90
11840;DHT22;5979;50.800;4.904;2022-08-21T04:04:24;14.00;99.90
11840;DHT22;5979;50.800;4.904;2022-08-21T04:06:50;14.10;99.90
11840;DHT22;5979;50.800;4.904;2022-08-21T04:09:17;14.00;99.90
11840;DHT22;5979;50.800;4.904;2022-08-21T04:11:43;14.10;99.90
11840;DHT22;5979;50.800;4.904;2022-08-21T04:14:09;14.10;99.90
11840;DHT22;5979;50.800;4.904;2022-08-21T04:16:34;14.10;99.90
11840;DHT22;5979;50.800;4.904;2022-08-21T04:19:00;14.10;99.90
11840;DHT22;5979;50.800;4.904;2022-08-21T04:21:26;14.10;99.90
11840;DHT22;5979;50.800;4.904;2022-08-21T04:23:54;14.10;99.90
11840;DHT22;5979;50.800;4.904;2022-08-21T04:26:20;14.10;99.90
11840;DHT22;5979;50.800;4.904;2022-08-21T04:28:46;14.10;99.90
11840;DHT22;5979;50.800;4.904;2022-08-21T04:31:12;14.10;99.90
11840;DHT22;5979;50.800;4.904;2022-08-21T04:33:37;14.00;99.90
11840;DHT22;5979;50.800;4.904;2022-08-21T04:36:04;14.00;99.90
11840;DHT22;5979;50.800;4.904;2022-08-21T04:38:30;13.90;99.90
11840;DHT22;5979;50.800;4.904;2022-08-21T04:40:57;13.90;99.90
11840;DHT22;5979;50.800;4.904;2022-08-21T04:43:22;13.90;99.90
11840;DHT22;5979;50.800;4.904;2022-08-21T04:45:49;13.80;99.90
11840;DHT22;5979;50.800;4.904;2022-08-21T04:48:17;13.90;99.90
11840;DHT22;5979;50.800;4.904;2022-08-21T04:53:40;13.90;99.90
11840;DHT22;5979;50.800;4.904;2022-08-21T04:56:12;14.00;99.90
11840;DHT22;5979;50.800;4.904;2022-08-21T04:58:40;13.90;99.90
11840;DHT22;5979;50.800;4.904;2022-08-21T05:01:13;14.00;99.90
11840;DHT22;5979;50.800;4.904;2022-08-21T05:03:40;14.20;99.90
11840;DHT22;5979;50.800;4.904;2022-08-21T05:06:09;14.50;99.90
11840;DHT22;5979;50.800;4.904;2022-08-21T05:08:36;15.00;99.90
11840;DHT22;5979;50.800;4.904;2022-08-21T05:11:03;15.40;99.90
11840;DHT22;5979;50.800;4.904;2022-08-21T05:13:29;15.80;99.90
11840;DHT22;5979;50.800;4.904;2022-08-21T05:15:55;16.20;99.90
11840;DHT22;5979;50.800;4.904;2022-08-21T05:18:21;16.60;99.90
11840;DHT22;5979;50.800;4.904;2022-08-21T05:20:46;17.00;99.90
11840;DHT22;5979;50.800;4.904;2022-08-21T05:23:13;17.30;99.90
11840;DHT22;5979;50.800;4.904;2022-08-21T05:25:39;17.70;99.90
11840;DHT22;5979;50.800;4.904;2022-08-21T05:28:05;18.00;99.90
11840;DHT22;5979;50.800;4.904;2022-08-21T05:30:32;18.40;99.90
11840;DHT22;5979;50.800;4.904;2022-08-21T05:32:59;18.70;99.90
11840;DHT22;5979;50.800;4.904;2022-08-21T05:35:26;19.00;99.90
11840;DHT22;5979;50.800;4.904;2022-08-21T05:37:52;19.30;99.90
11840;DHT22;5979;50.800;4.904;2022-08-21T05:40:17;19.50;99.90
11840;DHT22;5979;50.800;4.904;2022-08-21T05:42:43;19.80;99.90
11840;DHT22;5979;50.800;4.904;2022-08-21T05:45:09;20.10;99.90
11840;DHT22;5979;50.800;4.904;2022-08-21T05:47:35;20.30;99.90
11840;DHT22;5979;50.800;4.904;2022-08-21T05:50:00;20.50;99.90
11840;DHT22;5979;50.800;4.904;2022-08-21T05:52:26;20.50;99.90
11840;DHT22;5979;50.800;4.904;2022-08-21T05:54:52;20.40;99.90
11840;DHT22;5979;50.800;4.904;2022-08-21T05:57:20;20.20;99.90
11840;DHT22;5979;50.800;4.904;2022-08-21T05:59:45;20.20;99.90
11840;DHT22;5979;50.800;4.904;2022-08-21T06:02:11;20.10;99.90
11840;DHT22;5979;50.800;4.904;2022-08-21T06:04:40;20.10;99.90
11840;DHT22;5979;50.800;4.904;2022-08-21T06:07:06;20.30;99.90
11840;DHT22;5979;50.800;4.904;2022-08-21T06:09:33;20.50;99.90
11840;DHT22;5979;50.800;4.904;2022-08-21T06:12:03;20.70;99.90
11840;DHT22;5979;50.800;4.904;2022-08-21T06:14:29;20.90;99.90
11840;DHT22;5979;50.800;4.904;2022-08-21T06:16:54;21.10;99.90
11840;DHT22;5979;50.800;4.904;2022-08-21T06:19:26;21.40;99.90
11840;DHT22;5979;50.800;4.904;2022-08-21T06:21:51;21.50;99.90
11840;DHT22;5979;50.800;4.904;2022-08-21T06:24:17;21.60;99.90
11840;DHT22;5979;50.800;4.904;2022-08-21T06:26:43;21.80;99.90
11840;DHT22;5979;50.800;4.904;2022-08-21T06:29:08;21.90;99.90
11840;DHT22;5979;50.800;4.904;2022-08-21T06:31:39;22.00;99.90
11840;DHT22;5979;50.800;4.904;2022-08-21T06:34:09;22.20;99.90
11840;DHT22;5979;50.800;4.904;2022-08-21T06:36:34;22.20;99.90
11840;DHT22;5979;50.800;4.904;2022-08-21T06:39:00;22.30;99.90
11840;DHT22;5979;50.800;4.904;2022-08-21T06:41:26;22.40;99.90
11840;DHT22;5979;50.800;4.904;2022-08-21T06:43:53;22.40;99.90
11840;DHT22;5979;50.800;4.904;2022-08-21T06:46:19;22.50;99.90
11840;DHT22;5979;50.800;4.904;2022-08-21T06:48:45;22.50;99.90
11840;DHT22;5979;50.800;4.904;2022-08-21T06:51:11;22.60;99.90
11840;DHT22;5979;50.800;4.904;2022-08-21T06:53:36;22.70;99.90
11840;DHT22;5979;50.800;4.904;2022-08-21T06:56:03;22.70;99.90
11840;DHT22;5979;50.800;4.904;2022-08-21T06:58:29;22.70;99.90
11840;DHT22;5979;50.800;4.904;2022-08-21T07:00:56;22.70;99.90
11840;DHT22;5979;50.800;4.904;2022-08-21T07:03:25;22.80;99.90
11840;DHT22;5979;50.800;4.904;2022-08-21T07:05:51;22.80;99.90
11840;DHT22;5979;50.800;4.904;2022-08-21T07:08:17;22.90;99.90
11840;DHT22;5979;50.800;4.904;2022-08-21T07:10:43;22.90;99.90
11840;DHT22;5979;50.800;4.904;2022-08-21T07:13:09;22.90;99.90
11840;DHT22;5979;50.800;4.904;2022-08-21T07:15:34;23.00;99.90
11840;DHT22;5979;50.800;4.904;2022-08-21T07:18:01;23.10;99.90
11840;DHT22;5979;50.800;4.904;2022-08-21T07:20:28;23.20;99.90
11840;DHT22;5979;50.800;4.904;2022-08-21T07:22:55;23.30;99.90
11840;DHT22;5979;50.800;4.904;2022-08-21T07:25:21;23.20;99.90
11840;DHT22;5979;50.800;4.904;2022-08-21T07:27:47;23.30;99.90
11840;DHT22;5979;50.800;4.904;2022-08-21T07:30:13;23.30;99.90
11840;DHT22;5979;50.800;4.904;2022-08-21T07:32:38;23.30;99.90
11840;DHT22;5979;50.800;4.904;2022-08-21T07:35:04;23.30;99.90
11840;DHT22;5979;50.800;4.904;2022-08-21T07:37:30;23.40;99.90
11840;DHT22;5979;50.800;4.904;2022-08-21T07:39:56;23.40;99.90
11840;DHT22;5979;50.800;4.904;2022-08-21T07:42:21;23.50;99.90
11840;DHT22;5979;50.800;4.904;2022-08-21T07:44:47;23.50;99.90
11840;DHT22;5979;50.800;4.904;2022-08-21T07:47:13;23.70;99.90
11840;DHT22;5979;50.800;4.904;2022-08-21T07:49:38;23.90;99.90
11840;DHT22;5979;50.800;4.904;2022-08-21T07:52:05;23.90;99.90
11840;DHT22;5979;50.800;4.904;2022-08-21T07:54:30;24.10;99.90
11840;DHT22;5979;50.800;4.904;2022-08-21T07:56:56;24.20;99.90
11840;DHT22;5979;50.800;4.904;2022-08-21T07:59:22;24.30;99.90
11840;DHT22;5979;50.800;4.904;2022-08-21T08:01:47;24.50;99.90
11840;DHT22;5979;50.800;4.904;2022-08-21T08:04:13;24.60;99.90
11840;DHT22;5979;50.800;4.904;2022-08-21T08:06:41;24.30;99.90
11840;DHT22;5979;50.800;4.904;2022-08-21T08:09:07;24.30;99.90
11840;DHT22;5979;50.800;4.904;2022-08-21T08:11:32;24.10;99.90
11840;DHT22;5979;50.800;4.904;2022-08-21T08:13:59;23.80;99.90
11840;DHT22;5979;50.800;4.904;2022-08-21T08:16:25;23.60;99.90
11840;DHT22;5979;50.800;4.904;2022-08-21T08:18:51;23.60;99.90
11840;DHT22;5979;50.800;4.904;2022-08-21T08:21:17;23.60;99.90
11840;DHT22;5979;50.800;4.904;2022-08-21T08:23:46;23.70;99.90
11840;DHT22;5979;50.800;4.904;2022-08-21T08:26:12;23.80;99.90
11840;DHT22;5979;50.800;4.904;2022-08-21T08:28:38;24.00;99.90
11840;DHT22;5979;50.800;4.904;2022-08-21T08:31:04;24.00;99.90
11840;DHT22;5979;50.800;4.904;2022-08-21T08:33:30;24.10;99.90
11840;DHT22;5979;50.800;4.904;2022-08-21T08:35:56;24.40;99.90
11840;DHT22;5979;50.800;4.904;2022-08-21T08:38:24;24.40;99.90
11840;DHT22;5979;50.800;4.904;2022-08-21T08:43:26;24.30;99.90
11840;DHT22;5979;50.800;4.904;2022-08-21T08:45:54;24.30;99.90
11840;DHT22;5979;50.800;4.904;2022-08-21T08:49:00;24.30;99.90
11840;DHT22;5979;50.800;4.904;2022-08-21T08:51:44;24.20;99.90
11840;DHT22;5979;50.800;4.904;2022-08-21T08:54:14;24.10;99.90
11840;DHT22;5979;50.800;4.904;2022-08-21T08:56:40;24.10;99.90
11840;DHT22;5979;50.800;4.904;2022-08-21T08:59:19;24.10;99.90
11840;DHT22;5979;50.800;4.904;2022-08-21T09:01:46;24.00;99.90
11840;DHT22;5979;50.800;4.904;2022-08-21T09:04:13;23.90;99.90
11840;DHT22;5979;50.800;4.904;2022-08-21T09:10:38;24.00;99.90
11840;DHT22;5979;50.800;4.904;2022-08-21T09:21:02;24.60;99.90
11840;DHT22;5979;50.800;4.904;2022-08-21T09:26:22;25.00;99.90
11840;DHT22;5979;50.800;4.904;2022-08-21T09:28:54;25.10;99.90
11840;DHT22;5979;50.800;4.904;2022-08-21T09:31:29;25.30;99.90
11840;DHT22;5979;50.800;4.904;2022-08-21T09:34:07;25.40;99.90
11840;DHT22;5979;50.800;4.904;2022-08-21T09:36:47;25.40;99.90
11840;DHT22;5979;50.800;4.904;2022-08-21T09:41:56;25.40;99.90
11840;DHT22;5979;50.800;4.904;2022-08-21T09:44:27;25.50;99.90
11840;DHT22;5979;50.800;4.904;2022-08-21T09:46:54;25.70;99.90
11840;DHT22;5979;50.800;4.904;2022-08-21T09:49:29;25.80;99.90
11840;DHT22;5979;50.800;4.904;2022-08-21T09:51:56;25.90;99.90
11840;DHT22;5979;50.800;4.904;2022-08-21T09:54:31;26.00;99.90
11840;DHT22;5979;50.800;4.904;2022-08-21T09:57:24;26.10;99.90
11840;DHT22;5979;50.800;4.904;2022-08-21T10:00:22;26.10;99.90
11840;DHT22;5979;50.800;4.904;2022-08-21T10:02:49;26.10;99.90
11840;DHT22;5979;50.800;4.904;2022-08-21T10:05:19;26.00;99.90
11840;DHT22;5979;50.800;4.904;2022-08-21T10:07:44;26.00;99.90
11840;DHT22;5979;50.800;4.904;2022-08-21T10:10:21;25.90;99.90
11840;DHT22;5979;50.800;4.904;2022-08-21T10:20:44;26.40;99.90
11840;DHT22;5979;50.800;4.904;2022-08-21T10:42:47;25.80;99.90
11840;DHT22;5979;50.800;4.904;2022-08-21T10:47:54;25.40;99.90
11840;DHT22;5979;50.800;4.904;2022-08-21T10:53:28;25.20;99.90
11840;DHT22;5979;50.800;4.904;2022-08-21T10:55:59;25.30;99.90
11840;DHT22;5979;50.800;4.904;2022-08-21T10:58:34;25.30;99.90
11840;DHT22;5979;50.800;4.904;2022-08-21T11:01:11;25.30;99.90
11840;DHT22;5979;50.800;4.904;2022-08-21T11:03:44;25.40;99.90
11840;DHT22;5979;50.800;4.904;2022-08-21T11:06:27;25.40;99.90
11840;DHT22;5979;50.800;4.904;2022-08-21T11:08:57;25.60;99.90
11840;DHT22;5979;50.800;4.904;2022-08-21T11:12:09;25.80;99.90
11840;DHT22;5979;50.800;4.904;2022-08-21T11:17:10;26.00;99.90
11840;DHT22;5979;50.800;4.904;2022-08-21T11:19:53;26.30;99.90
11840;DHT22;5979;50.800;4.904;2022-08-21T11:22:51;26.60;99.90
11840;DHT22;5979;50.800;4.904;2022-08-21T11:25:29;26.80;99.90
11840;DHT22;5979;50.800;4.904;2022-08-21T11:28:08;26.50;99.90
11840;DHT22;5979;50.800;4.904;2022-08-21T11:33:53;26.30;99.90
11840;DHT22;5979;50.800;4.904;2022-08-21T11:36:53;26.40;99.90
11840;DHT22;5979;50.800;4.904;2022-08-21T11:39:30;26.50;99.90
11840;DHT22;5979;50.800;4.904;2022-08-21T11:42:25;26.60;99.90
11840;DHT22;5979;50.800;4.904;2022-08-21T11:47:45;26.40;99.90
11840;DHT22;5979;50.800;4.904;2022-08-21T11:50:27;26.40;99.90
11840;DHT22;5979;50.800;4.904;2022-08-21T11:53:16;26.40;99.90
11840;DHT22;5979;50.800;4.904;2022-08-21T11:55:50;26.20;99.90
11840;DHT22;5979;50.800;4.904;2022-08-21T11:58:23;26.20;99.90
11840;DHT22;5979;50.800;4.904;2022-08-21T12:00:59;26.30;99.90
11840;DHT22;5979;50.800;4.904;2022-08-21T12:04:08;26.60;99.90
11840;DHT22;5979;50.800;4.904;2022-08-21T12:06:41;26.80;99.90
11840;DHT22;5979;50.800;4.904;2022-08-21T12:09:10;26.40;99.90
11840;DHT22;5979;50.800;4.904;2022-08-21T12:14:48;26.10;99.90
11840;DHT22;5979;50.800;4.904;2022-08-21T12:17:23;25.80;99.90
11840;DHT22;5979;50.800;4.904;2022-08-21T12:20:00;25.80;99.90
11840;DHT22;5979;50.800;4.904;2022-08-21T12:22:40;25.70;99.90
11840;DHT22;5979;50.800;4.904;2022-08-21T12:25:11;25.60;99.90
11840;DHT22;5979;50.800;4.904;2022-08-21T12:27:52;25.60;99.90
11840;DHT22;5979;50.800;4.904;2022-08-21T12:33:02;25.80;99.90
11840;DHT22;5979;50.800;4.904;2022-08-21T12:35:39;25.90;99.90
11840;DHT22;5979;50.800;4.904;2022-08-21T12:38:27;26.00;99.90
11840;DHT22;5979;50.800;4.904;2022-08-21T12:40:59;25.60;99.90
11840;DHT22;5979;50.800;4.904;2022-08-21T12:43:30;25.60;99.90
11840;DHT22;5979;50.800;4.904;2022-08-21T12:45:57;25.80;99.90
11840;DHT22;5979;50.800;4.904;2022-08-21T12:48:38;26.00;99.90
11840;DHT22;5979;50.800;4.904;2022-08-21T12:51:12;26.10;99.90
11840;DHT22;5979;50.800;4.904;2022-08-21T12:53:48;26.00;99.90
11840;DHT22;5979;50.800;4.904;2022-08-21T12:56:23;26.00;99.90
11840;DHT22;5979;50.800;4.904;2022-08-21T12:58:56;25.90;99.90
11840;DHT22;5979;50.800;4.904;2022-08-21T13:01:45;26.10;99.90
11840;DHT22;5979;50.800;4.904;2022-08-21T13:04:19;26.30;99.90
11840;DHT22;5979;50.800;4.904;2022-08-21T13:06:50;26.60;99.90
11840;DHT22;5979;50.800;4.904;2022-08-21T13:09:20;26.70;99.90
11840;DHT22;5979;50.800;4.904;2022-08-21T13:11:49;26.90;99.90
11840;DHT22;5979;50.800;4.904;2022-08-21T13:14:41;26.90;99.90
11840;DHT22;5979;50.800;4.904;2022-08-21T13:17:08;26.90;99.90
11840;DHT22;5979;50.800;4.904;2022-08-21T13:19:35;27.00;99.90
11840;DHT22;5979;50.800;4.904;2022-08-21T13:22:01;27.10;99.90
11840;DHT22;5979;50.800;4.904;2022-08-21T13:24:34;27.00;99.90
11840;DHT22;5979;50.800;4.904;2022-08-21T13:27:01;27.00;99.90
11840;DHT22;5979;50.800;4.904;2022-08-21T13:29:30;27.00;99.90
11840;DHT22;5979;50.800;4.904;2022-08-21T13:31:58;27.10;99.90
11840;DHT22;5979;50.800;4.904;2022-08-21T13:34:29;27.10;99.90
11840;DHT22;5979;50.800;4.904;2022-08-21T13:37:02;27.10;99.90
11840;DHT22;5979;50.800;4.904;2022-08-21T13:39:29;26.90;99.90
11840;DHT22;5979;50.800;4.904;2022-08-21T13:42:00;26.90;99.90
11840;DHT22;5979;50.800;4.904;2022-08-21T13:44:41;26.90;99.90
11840;DHT22;5979;50.800;4.904;2022-08-21T13:47:13;26.70;99.90
11840;DHT22;5979;50.800;4.904;2022-08-21T13:49:51;26.60;99.90
11840;DHT22;5979;50.800;4.904;2022-08-21T13:52:21;26.40;99.90
11840;DHT22;5979;50.800;4.904;2022-08-21T13:55:00;26.20;99.90
11840;DHT22;5979;50.800;4.904;2022-08-21T13:57:36;26.20;99.90
11840;DHT22;5979;50.800;4.904;2022-08-21T14:00:25;26.10;99.90
11840;DHT22;5979;50.800;4.904;2022-08-21T14:02:53;26.00;99.90
11840;DHT22;5979;50.800;4.904;2022-08-21T14:05:30;26.00;99.90
11840;DHT22;5979;50.800;4.904;2022-08-21T14:08:12;26.00;99.90
11840;DHT22;5979;50.800;4.904;2022-08-21T14:10:44;25.90;99.90
11840;DHT22;5979;50.800;4.904;2022-08-21T14:13:33;25.80;99.90
11840;DHT22;5979;50.800;4.904;2022-08-21T14:16:01;25.80;99.90
11840;DHT22;5979;50.800;4.904;2022-08-21T14:18:27;25.80;99.90
11840;DHT22;5979;50.800;4.904;2022-08-21T14:21:04;25.70;99.90
11840;DHT22;5979;50.800;4.904;2022-08-21T14:23:30;25.60;99.90
11840;DHT22;5979;50.800;4.904;2022-08-21T14:25:59;25.50;99.90
11840;DHT22;5979;50.800;4.904;2022-08-21T14:28:28;25.50;99.90
11840;DHT22;5979;50.800;4.904;2022-08-21T14:30:57;25.60;99.90
11840;DHT22;5979;50.800;4.904;2022-08-21T14:33:30;25.70;99.90
11840;DHT22;5979;50.800;4.904;2022-08-21T14:35:57;25.80;99.90
11840;DHT22;5979;50.800;4.904;2022-08-21T14:38:25;25.90;99.90
11840;DHT22;5979;50.800;4.904;2022-08-21T14:40:57;25.90;99.90
11840;DHT22;5979;50.800;4.904;2022-08-21T14:43:26;26.00;99.90
11840;DHT22;5979;50.800;4.904;2022-08-21T14:45:52;26.00;99.90
11840;DHT22;5979;50.800;4.904;2022-08-21T14:48:18;26.00;99.90
11840;DHT22;5979;50.800;4.904;2022-08-21T14:50:44;25.90;99.90
11840;DHT22;5979;50.800;4.904;2022-08-21T14:53:10;25.90;99.90
11840;DHT22;5979;50.800;4.904;2022-08-21T14:55:36;25.90;99.90
11840;DHT22;5979;50.800;4.904;2022-08-21T14:58:22;25.80;99.90
11840;DHT22;5979;50.800;4.904;2022-08-21T15:00:49;25.90;99.90
11840;DHT22;5979;50.800;4.904;2022-08-21T15:03:15;25.90;99.90
11840;DHT22;5979;50.800;4.904;2022-08-21T15:05:41;25.90;99.90
11840;DHT22;5979;50.800;4.904;2022-08-21T15:08:06;25.90;99.90
11840;DHT22;5979;50.800;4.904;2022-08-21T15:10:33;25.90;99.90
11840;DHT22;5979;50.800;4.904;2022-08-21T15:13:00;26.00;99.90
11840;DHT22;5979;50.800;4.904;2022-08-21T15:15:26;25.90;99.90
11840;DHT22;5979;50.800;4.904;2022-08-21T15:17:52;25.90;99.90
11840;DHT22;5979;50.800;4.904;2022-08-21T15:20:18;25.90;99.90
11840;DHT22;5979;50.800;4.904;2022-08-21T15:22:43;25.90;99.90
11840;DHT22;5979;50.800;4.904;2022-08-21T15:25:09;25.90;99.90
11840;DHT22;5979;50.800;4.904;2022-08-21T15:27:35;25.90;99.90
11840;DHT22;5979;50.800;4.904;2022-08-21T15:30:02;25.90;99.90
11840;DHT22;5979;50.800;4.904;2022-08-21T15:32:28;25.70;99.90
11840;DHT22;5979;50.800;4.904;2022-08-21T15:34:56;25.60;99.90
11840;DHT22;5979;50.800;4.904;2022-08-21T15:37:24;25.40;99.90
11840;DHT22;5979;50.800;4.904;2022-08-21T15:39:50;25.40;99.90
11840;DHT22;5979;50.800;4.904;2022-08-21T15:42:17;25.40;99.90
11840;DHT22;5979;50.800;4.904;2022-08-21T15:44:43;25.40;99.90
11840;DHT22;5979;50.800;4.904;2022-08-21T15:47:13;25.40;99.90
11840;DHT22;5979;50.800;4.904;2022-08-21T15:49:40;25.40;99.90
11840;DHT22;5979;50.800;4.904;2022-08-21T15:52:12;25.40;99.90
11840;DHT22;5979;50.800;4.904;2022-08-21T15:54:38;25.40;99.90
11840;DHT22;5979;50.800;4.904;2022-08-21T15:57:04;25.40;99.90
11840;DHT22;5979;50.800;4.904;2022-08-21T15:59:38;25.40;99.90
11840;DHT22;5979;50.800;4.904;2022-08-21T16:02:06;25.30;99.90
11840;DHT22;5979;50.800;4.904;2022-08-21T16:04:32;25.30;99.90
11840;DHT22;5979;50.800;4.904;2022-08-21T16:06:58;25.30;99.90
11840;DHT22;5979;50.800;4.904;2022-08-21T16:09:24;25.40;99.90
11840;DHT22;5979;50.800;4.904;2022-08-21T16:11:50;25.30;99.90
11840;DHT22;5979;50.800;4.904;2022-08-21T16:14:16;25.30;99.90
11840;DHT22;5979;50.800;4.904;2022-08-21T16:16:42;25.30;99.90
11840;DHT22;5979;50.800;4.904;2022-08-21T16:19:10;25.20;99.90
11840;DHT22;5979;50.800;4.904;2022-08-21T16:21:36;25.10;99.90
11840;DHT22;5979;50.800;4.904;2022-08-21T16:24:02;25.10;99.90
11840;DHT22;5979;50.800;4.904;2022-08-21T16:26:29;25.10;99.90
11840;DHT22;5979;50.800;4.904;2022-08-21T16:28:56;25.00;99.90
11840;DHT22;5979;50.800;4.904;2022-08-21T16:31:24;25.10;99.90
11840;DHT22;5979;50.800;4.904;2022-08-21T16:33:53;25.10;99.90
11840;DHT22;5979;50.800;4.904;2022-08-21T16:36:21;25.10;99.90
11840;DHT22;5979;50.800;4.904;2022-08-21T16:38:46;25.10;99.90
11840;DHT22;5979;50.800;4.904;2022-08-21T16:41:15;24.90;99.90
11840;DHT22;5979;50.800;4.904;2022-08-21T16:43:43;24.90;99.90
11840;DHT22;5979;50.800;4.904;2022-08-21T16:46:12;24.80;99.90
11840;DHT22;5979;50.800;4.904;2022-08-21T16:48:41;24.80;99.90
11840;DHT22;5979;50.800;4.904;2022-08-21T16:51:09;24.70;99.90
11840;DHT22;5979;50.800;4.904;2022-08-21T16:53:35;24.60;99.90
11840;DHT22;5979;50.800;4.904;2022-08-21T16:56:02;24.60;99.90
11840;DHT22;5979;50.800;4.904;2022-08-21T16:58:31;24.50;99.90
11840;DHT22;5979;50.800;4.904;2022-08-21T17:00:58;24.50;99.90
11840;DHT22;5979;50.800;4.904;2022-08-21T17:03:29;24.50;99.90
11840;DHT22;5979;50.800;4.904;2022-08-21T17:05:56;24.50;99.90
11840;DHT22;5979;50.800;4.904;2022-08-21T17:08:22;24.50;99.90